createdAt,value
2023-05-09T00:02:42.702Z,99379.52
2023-05-09T00:07:50.024Z,99376.30
2023-05-09T00:12:59.215Z,99376.36
2023-05-09T00:18:06.658Z,99374.64
2023-05-09T00:23:13.832Z,99369.77
2023-05-09T00:28:21.107Z,99361.49
2023-05-09T00:33:28.375Z,99358.90
2023-05-09T00:38:35.718Z,99352.76
2023-05-09T00:43:43.276Z,99355.11
2023-05-09T00:48:52.755Z,99350.77
2023-05-09T00:54:00.184Z,99348.56
2023-05-09T00:59:08.017Z,99346.05
2023-05-09T01:04:16.093Z,99340.07
2023-05-09T01:09:26.540Z,99334.17
2023-05-09T01:14:37.882Z,99331.65
2023-05-09T01:19:57.161Z,99328.97
2023-05-09T01:25:15.705Z,99324.25
2023-05-09T01:30:22.963Z,99331.08
2023-05-09T01:35:32.866Z,99328.09
2023-05-09T01:40:41.011Z,99328.25
2023-05-09T01:45:49.472Z,99329.35
2023-05-09T01:50:57.467Z,99322.98
2023-05-09T01:56:05.104Z,99319.04
2023-05-09T02:01:12.447Z,99310.23
2023-05-09T02:06:21.172Z,99312.17
2023-05-09T02:11:28.402Z,99305.16
2023-05-09T02:16:35.815Z,99301.31
2023-05-09T02:21:43.101Z,99303.45
2023-05-09T02:26:50.386Z,99299.50
2023-05-09T02:31:57.900Z,99301.08
2023-05-09T02:37:05.510Z,99297.45
2023-05-09T02:42:13.450Z,99305.23
2023-05-09T02:47:20.568Z,99300.12
2023-05-09T02:52:28.074Z,99296.04
2023-05-09T02:57:35.330Z,99293.56
2023-05-09T03:02:42.656Z,99296.02
2023-05-09T03:07:50.992Z,99297.19
2023-05-09T03:12:58.724Z,99295.85
2023-05-09T03:18:06.197Z,99286.89
2023-05-09T03:23:13.569Z,99290.11
2023-05-09T03:28:20.761Z,99300.17
2023-05-09T03:33:28.098Z,99298.06
2023-05-09T03:38:35.570Z,99301.91
2023-05-09T03:43:42.940Z,99301.04
2023-05-09T03:48:49.989Z,99298.13
2023-05-09T03:53:57.264Z,99299.61
2023-05-09T03:59:04.889Z,99299.05
2023-05-09T04:04:12.532Z,99302.44
2023-05-09T04:09:20.129Z,99303.61
2023-05-09T04:14:27.292Z,99302.76
2023-05-09T04:19:34.262Z,99308.42
2023-05-09T04:24:41.571Z,99307.80
2023-05-09T04:29:49.689Z,99303.45
2023-05-09T04:34:57.053Z,99305.98
2023-05-09T04:40:04.742Z,99303.16
2023-05-09T04:45:13.277Z,99302.39
2023-05-09T04:50:21.172Z,99297.11
2023-05-09T04:55:28.699Z,99284.84
2023-05-09T05:00:36.578Z,99285.02
2023-05-09T05:05:43.822Z,99286.21
2023-05-09T05:10:51.425Z,99280.80
2023-05-09T05:15:59.203Z,99284.34
2023-05-09T05:21:06.318Z,99289.78
2023-05-09T05:26:13.578Z,99290.18
2023-05-09T05:31:20.665Z,99289.16
2023-05-09T05:36:28.197Z,99288.09
2023-05-09T05:41:35.679Z,99289.27
2023-05-09T05:46:43.350Z,99288.82
2023-05-09T05:51:51.169Z,99280.56
2023-05-09T05:56:58.332Z,99280.40
2023-05-09T06:02:05.708Z,99275.77
2023-05-09T06:07:14.286Z,99271.94
2023-05-09T06:12:21.656Z,99269.91
2023-05-09T06:17:29.071Z,99264.32
2023-05-09T06:22:36.506Z,99262.84
2023-05-09T06:27:43.865Z,99252.84
2023-05-09T06:32:51.334Z,99256.54
2023-05-09T06:37:58.739Z,99256.31
2023-05-09T06:43:06.331Z,99252.05
2023-05-09T06:48:14.470Z,99251.20
2023-05-09T06:53:21.692Z,99245.06
2023-05-09T06:58:29.235Z,99239.16
2023-05-09T07:03:36.469Z,99239.33
2023-05-09T07:08:43.691Z,99225.70
2023-05-09T07:13:50.873Z,99228.52
2023-05-09T07:18:58.146Z,99224.44
2023-05-09T07:24:06.833Z,99221.67
2023-05-09T07:29:14.559Z,99220.82
2023-05-09T07:34:22.115Z,99208.54
2023-05-09T07:39:29.485Z,99206.25
2023-05-09T07:44:37.121Z,99206.64
2023-05-09T07:49:46.820Z,99195.77
2023-05-09T07:54:54.856Z,99192.21
2023-05-09T08:00:02.085Z,99189.62
2023-05-09T08:05:11.872Z,99183.48
2023-05-09T08:10:18.965Z,99182.62
2023-05-09T08:15:26.534Z,99182.84
2023-05-09T08:20:34.955Z,99180.17
2023-05-09T08:25:43.504Z,99172.77
2023-05-09T08:30:50.673Z,99168.73
2023-05-09T08:35:58.089Z,99162.05
2023-05-09T08:41:05.098Z,99153.30
2023-05-09T08:46:12.678Z,99157.32
2023-05-09T08:51:20.262Z,99162.83
2023-05-09T08:56:27.832Z,99161.88
2023-05-09T09:01:35.664Z,99153.92
2023-05-09T09:06:44.072Z,99150.92
2023-05-09T09:11:53.833Z,99147.40
2023-05-09T09:17:01.821Z,99149.44
2023-05-09T09:22:10.084Z,99149.91
2023-05-09T09:27:17.327Z,99156.45
2023-05-09T09:32:34.648Z,99145.27
2023-05-09T09:37:43.577Z,99143.45
2023-05-09T09:42:51.307Z,99136.52
2023-05-09T09:47:59.034Z,99130.53
2023-05-09T09:53:06.638Z,99130.77
2023-05-09T09:58:20.994Z,99120.21
2023-05-09T10:03:37.337Z,99114.86
2023-05-09T10:08:47.772Z,99120.38
2023-05-09T10:13:55.039Z,99110.85
2023-05-09T10:19:02.224Z,99107.46
2023-05-09T10:24:10.859Z,99103.59
2023-05-09T10:29:23.525Z,99101.71
2023-05-09T10:34:34.300Z,99093.59
2023-05-09T10:39:41.442Z,99093.77
2023-05-09T10:44:48.791Z,99090.37
2023-05-09T10:49:56.288Z,99078.02
2023-05-09T10:55:04.147Z,99075.80
2023-05-09T11:00:12.688Z,99067.70
2023-05-09T11:05:20.608Z,99054.39
2023-05-09T11:10:27.898Z,99061.71
2023-05-09T11:15:35.501Z,99058.64
2023-05-09T11:20:46.707Z,99042.59
2023-05-09T11:25:54.106Z,99032.52
2023-05-09T11:31:12.928Z,99030.70
2023-05-09T11:36:25.799Z,99029.73
2023-05-09T11:41:33.005Z,99029.11
2023-05-09T11:46:40.061Z,99024.32
2023-05-09T11:51:47.331Z,99009.36
2023-05-09T11:56:54.761Z,99001.87
2023-05-09T12:02:04.481Z,98997.30
2023-05-09T12:07:13.337Z,98987.15
2023-05-09T12:12:22.111Z,98986.29
2023-05-09T12:17:29.754Z,98987.15
2023-05-09T12:22:37.900Z,98964.64
2023-05-09T12:27:45.038Z,98971.80
2023-05-09T12:32:52.169Z,98960.36
2023-05-09T12:38:00.272Z,98961.72
2023-05-09T12:43:07.657Z,98951.48
2023-05-09T12:48:15.669Z,98945.02
2023-05-09T12:53:27.752Z,98950.21
2023-05-09T12:58:35.480Z,98948.25
2023-05-09T13:03:42.839Z,98939.29
2023-05-09T13:08:59.478Z,98938.34
2023-05-09T13:14:06.647Z,98922.10
2023-05-09T13:19:14.419Z,98919.82
2023-05-09T13:24:21.735Z,98912.98
2023-05-09T13:29:28.937Z,98911.63
2023-05-09T13:34:36.367Z,98903.75
2023-05-09T13:39:43.468Z,98900.38
2023-05-09T13:44:50.615Z,98896.04
2023-05-09T13:49:57.980Z,98887.14
2023-05-09T13:55:05.489Z,98884.06
2023-05-09T14:00:15.815Z,98888.63
2023-05-09T14:05:23.299Z,98885.50
2023-05-09T14:10:30.919Z,98871.71
2023-05-09T14:15:38.521Z,98869.11
2023-05-09T14:20:45.623Z,98856.58
2023-05-09T14:25:52.671Z,98853.75
2023-05-09T14:30:59.775Z,98849.90
2023-05-09T14:36:07.622Z,98846.42
2023-05-09T14:41:15.168Z,98842.97
2023-05-09T14:46:23.225Z,98837.69
2023-05-09T14:51:30.860Z,98835.57
2023-05-09T14:56:38.408Z,98838.56
2023-05-09T15:01:45.950Z,98832.02
2023-05-09T15:06:53.294Z,98825.64
2023-05-09T15:12:00.641Z,98818.88
2023-05-09T15:17:07.684Z,98813.20
2023-05-09T15:22:15.013Z,98801.70
2023-05-09T15:27:22.268Z,98794.23
2023-05-09T15:32:29.430Z,98789.81
2023-05-09T15:37:37.058Z,98780.05
2023-05-09T15:42:44.652Z,98770.29
2023-05-09T15:47:52.199Z,98772.80
2023-05-09T15:52:59.717Z,98774.94
2023-05-09T15:58:08.972Z,98767.45
2023-05-09T16:03:16.317Z,98762.10
2023-05-09T16:08:23.522Z,98755.80
2023-05-09T16:13:31.567Z,98748.08
2023-05-09T16:18:40.154Z,98747.36
2023-05-09T16:23:47.603Z,98745.64
2023-05-09T16:28:54.993Z,98739.02
2023-05-09T16:34:02.607Z,98734.30
2023-05-09T16:39:10.220Z,98731.15
2023-05-09T16:44:17.600Z,98726.66
2023-05-09T16:49:25.093Z,98725.00
2023-05-09T16:54:32.946Z,98718.15
2023-05-09T16:59:40.063Z,98714.45
2023-05-09T17:04:47.497Z,98709.58
2023-05-09T17:09:54.574Z,98711.39
2023-05-09T17:15:01.994Z,98708.86
2023-05-09T17:20:11.205Z,98703.51
2023-05-09T17:25:18.790Z,98697.99
2023-05-09T17:30:26.555Z,98695.70
2023-05-09T17:35:33.675Z,98702.95
2023-05-09T17:40:41.073Z,98702.00
2023-05-09T17:45:48.476Z,98699.48
2023-05-09T17:50:56.161Z,98700.67
2023-05-09T17:56:03.726Z,98700.92
2023-05-09T18:01:12.216Z,98696.18
2023-05-09T18:06:19.644Z,98700.52
2023-05-09T18:11:27.270Z,98695.40
2023-05-09T18:16:35.843Z,98693.20
2023-05-09T18:21:43.088Z,98689.02
2023-05-09T18:26:50.203Z,98697.30
2023-05-09T18:31:58.030Z,98690.06
2023-05-09T18:37:05.244Z,98695.42
2023-05-09T18:42:13.989Z,98698.73
2023-05-09T18:47:25.185Z,98700.77
2023-05-09T18:52:33.082Z,98703.27
2023-05-09T18:57:40.946Z,98709.27
2023-05-09T19:02:48.132Z,98706.77
2023-05-09T19:07:55.319Z,98700.14
2023-05-09T19:13:02.602Z,98701.64
2023-05-09T19:18:09.863Z,98696.77
2023-05-09T19:23:17.352Z,98700.92
2023-05-09T19:28:24.641Z,98695.33
2023-05-09T19:33:31.949Z,98692.34
2023-05-09T19:38:39.530Z,98687.16
2023-05-09T19:43:49.064Z,98684.10
2023-05-09T19:48:56.090Z,98679.29
2023-05-09T19:54:03.922Z,98678.66
2023-05-09T19:59:10.885Z,98677.16
2023-05-09T20:04:22.103Z,98681.41
2023-05-09T20:09:30.796Z,98683.14
2023-05-09T20:14:38.205Z,98679.77
2023-05-09T20:19:45.569Z,98674.71
2023-05-09T20:24:52.839Z,98674.10
2023-05-09T20:30:00.266Z,98674.40
2023-05-09T20:35:07.965Z,98674.34
2023-05-09T20:40:15.794Z,98669.77
2023-05-09T20:45:23.313Z,98670.48
2023-05-09T20:50:30.533Z,98671.98
2023-05-09T20:55:37.756Z,98667.02
2023-05-09T21:00:47.451Z,98665.83
2023-05-09T21:05:54.498Z,98661.65
2023-05-09T21:11:01.829Z,98659.30
2023-05-09T21:16:09.282Z,98656.77
2023-05-09T21:21:16.810Z,98655.92
2023-05-09T21:26:24.547Z,98651.58
2023-05-09T21:31:31.911Z,98653.86
2023-05-09T21:36:39.358Z,98652.62
2023-05-09T21:41:46.695Z,98651.11
2023-05-09T21:46:54.016Z,98655.28
2023-05-09T21:52:01.586Z,98648.28
2023-05-09T21:57:08.986Z,98648.77
2023-05-09T22:02:16.270Z,98647.97
2023-05-09T22:07:23.469Z,98647.74
2023-05-09T22:12:31.006Z,98647.02
2023-05-09T22:17:38.471Z,98641.69
2023-05-09T22:22:45.843Z,98639.88
2023-05-09T22:27:53.285Z,98639.25
2023-05-09T22:33:00.796Z,98639.80
2023-05-09T22:38:07.881Z,98637.42
2023-05-09T22:43:14.981Z,98629.56
2023-05-09T22:48:22.285Z,98623.81
2023-05-09T22:53:29.436Z,98622.71
2023-05-09T22:58:36.950Z,98626.33
2023-05-09T23:03:44.254Z,98623.58
2023-05-09T23:08:51.771Z,98619.83
2023-05-09T23:13:59.252Z,98617.91
2023-05-09T23:19:06.910Z,98619.42
2023-05-09T23:24:14.356Z,98616.27
2023-05-09T23:29:21.419Z,98613.92
2023-05-09T23:34:28.703Z,98610.83
2023-05-09T23:39:35.809Z,98611.37
2023-05-09T23:44:43.028Z,98608.00
2023-05-09T23:49:50.258Z,98604.93
2023-05-09T23:54:57.541Z,98594.39
